WAT364 ENCN-EHAM
Flight info
| Callsign | WAT364 |
|---|---|
| Flight time | N/A |
| Altitude | 34000 |
| Route | RASVI M609 BAVTA DCT IPSUB P174 AFPIN/N0416F360 P174 KUBAT T200 BLUFA |
| Aircraft | B732/M-SDFGHRWY/S |
Departure
| Time | 2026-04-26 15:05 |
|---|---|
| Airport | Kristiansand Airport (ENCN) |
Arrival
| Time | N/A |
|---|---|
| Airport | Amsterdam Airport Schiphol (EHAM) |
| Time | Latitude | Longitude | Altitude | Speed | Heading |
|---|---|---|---|---|---|
| 2026-04-26 14:31 | 58.20123 | 8.07409 | 46 ft | 0 kts | 302° |
| 2026-04-26 14:56 | 58.20122 | 8.07410 | 46 ft | 1 kts | 302° |
| 2026-04-26 14:56 | 58.20114 | 8.07433 | 46 ft | 2 kts | 302° |
| 2026-04-26 14:56 | 58.20106 | 8.07457 | 46 ft | 2 kts | 312° |
| 2026-04-26 14:56 | 58.20093 | 8.07470 | 45 ft | 2 kts | 352° |
| 2026-04-26 14:57 | 58.20079 | 8.07467 | 45 ft | 1 kts | 25° |
| 2026-04-26 14:57 | 58.20073 | 8.07461 | 44 ft | 1 kts | 35° |
| 2026-04-26 14:57 | 58.20071 | 8.07458 | 44 ft | 0 kts | 33° |
| 2026-04-26 14:59 | 58.20074 | 8.07461 | 44 ft | 2 kts | 29° |
| 2026-04-26 15:00 | 58.20145 | 8.07544 | 47 ft | 14 kts | 32° |
| 2026-04-26 15:00 | 58.20234 | 8.07646 | 47 ft | 14 kts | 32° |
| 2026-04-26 15:00 | 58.20312 | 8.07753 | 51 ft | 12 kts | 41° |
| 2026-04-26 15:00 | 58.20365 | 8.07880 | 51 ft | 12 kts | 55° |
| 2026-04-26 15:01 | 58.20423 | 8.08022 | 52 ft | 13 kts | 51° |
| 2026-04-26 15:01 | 58.20481 | 8.08167 | 51 ft | 14 kts | 52° |
| 2026-04-26 15:01 | 58.20538 | 8.08328 | 53 ft | 14 kts | 72° |
| 2026-04-26 15:01 | 58.20555 | 8.08510 | 54 ft | 14 kts | 82° |
| 2026-04-26 15:02 | 58.20575 | 8.08698 | 54 ft | 14 kts | 70° |
| 2026-04-26 15:02 | 58.20645 | 8.08830 | 54 ft | 14 kts | 34° |
| 2026-04-26 15:02 | 58.20732 | 8.08947 | 55 ft | 16 kts | 35° |
| 2026-04-26 15:02 | 58.20830 | 8.09080 | 56 ft | 18 kts | 36° |
| 2026-04-26 15:03 | 58.20948 | 8.09233 | 55 ft | 22 kts | 36° |
| 2026-04-26 15:03 | 58.21055 | 8.09409 | 53 ft | 17 kts | 43° |
| 2026-04-26 15:03 | 58.21086 | 8.09425 | 53 ft | 0 kts | 252° |
| 2026-04-26 15:03 | 58.21086 | 8.09422 | 53 ft | 0 kts | 249° |
| 2026-04-26 15:04 | 58.21067 | 8.09389 | 54 ft | 8 kts | 214° |
| 2026-04-26 15:04 | 58.21052 | 8.09371 | 54 ft | 0 kts | 214° |
| 2026-04-26 15:04 | 58.21051 | 8.09369 | 54 ft | 0 kts | 214° |
| 2026-04-26 15:04 | 58.21028 | 8.09338 | 55 ft | 18 kts | 216° |
| 2026-04-26 15:05 | 58.20754 | 8.08976 | 55 ft | 77 kts | 215° |
| 2026-04-26 15:05 | 58.20589 | 8.08757 | 53 ft | 97 kts | 214° |
| 2026-04-26 15:05 | 58.19333 | 8.07032 | 376 ft | 151 kts | 212° |
| 2026-04-26 15:05 | 58.18444 | 8.05972 | 965 ft | 156 kts | 211° |
| 2026-04-26 15:06 | 58.17548 | 8.04930 | 1664 ft | 152 kts | 205° |
| 2026-04-26 15:06 | 58.16540 | 8.04079 | 2055 ft | 173 kts | 202° |
| 2026-04-26 15:06 | 58.15366 | 8.03119 | 2495 ft | 193 kts | 202° |
| 2026-04-26 15:06 | 58.14106 | 8.02314 | 3275 ft | 196 kts | 190° |
| 2026-04-26 15:07 | 58.11471 | 8.01324 | 4877 ft | 196 kts | 194° |
| 2026-04-26 15:07 | 58.10154 | 8.00674 | 5624 ft | 198 kts | 196° |
| 2026-04-26 15:07 | 58.08843 | 8.00008 | 6344 ft | 200 kts | 192° |
| 2026-04-26 15:08 | 58.07457 | 7.99708 | 7055 ft | 202 kts | 187° |
| 2026-04-26 15:08 | 58.06066 | 7.99481 | 7745 ft | 204 kts | 187° |
| 2026-04-26 15:08 | 58.04675 | 7.99300 | 8410 ft | 206 kts | 186° |
| 2026-04-26 15:08 | 58.03249 | 7.99137 | 9069 ft | 208 kts | 186° |
| 2026-04-26 15:09 | 58.01811 | 7.98982 | 9710 ft | 210 kts | 186° |
| 2026-04-26 15:09 | 58.00352 | 7.98830 | 10340 ft | 211 kts | 186° |
| 2026-04-26 15:09 | 57.98885 | 7.98678 | 10925 ft | 215 kts | 187° |
| 2026-04-26 15:09 | 57.97351 | 7.98516 | 11257 ft | 230 kts | 187° |
| 2026-04-26 15:10 | 57.95734 | 7.98350 | 11792 ft | 235 kts | 187° |
| 2026-04-26 15:10 | 57.94656 | 7.98242 | 12211 ft | 236 kts | 187° |
| 2026-04-26 15:10 | 57.92494 | 7.98023 | 13035 ft | 237 kts | 187° |
| 2026-04-26 15:10 | 57.90850 | 7.97855 | 13616 ft | 239 kts | 187° |
| 2026-04-26 15:11 | 57.89183 | 7.97684 | 14184 ft | 241 kts | 187° |
| 2026-04-26 15:11 | 57.87521 | 7.97515 | 14742 ft | 242 kts | 187° |
| 2026-04-26 15:11 | 57.85832 | 7.97343 | 15291 ft | 244 kts | 188° |
| 2026-04-26 15:11 | 57.84161 | 7.97173 | 15818 ft | 246 kts | 188° |
| 2026-04-26 15:12 | 57.82452 | 7.96999 | 16339 ft | 248 kts | 188° |
| 2026-04-26 15:12 | 57.80733 | 7.96824 | 16844 ft | 250 kts | 188° |
| 2026-04-26 15:12 | 57.79001 | 7.96649 | 17339 ft | 251 kts | 188° |
| 2026-04-26 15:12 | 57.77257 | 7.96472 | 17821 ft | 253 kts | 188° |
| 2026-04-26 15:13 | 57.75485 | 7.96292 | 18295 ft | 255 kts | 188° |
| 2026-04-26 15:13 | 57.73730 | 7.96115 | 18750 ft | 257 kts | 188° |
| 2026-04-26 15:13 | 57.71937 | 7.95934 | 19201 ft | 258 kts | 189° |
| 2026-04-26 15:13 | 57.70148 | 7.95753 | 19636 ft | 260 kts | 189° |
| 2026-04-26 15:14 | 57.68343 | 7.95571 | 20062 ft | 262 kts | 189° |
| 2026-04-26 15:14 | 57.66525 | 7.95388 | 20478 ft | 263 kts | 189° |
| 2026-04-26 15:14 | 57.64690 | 7.95203 | 20884 ft | 265 kts | 189° |
| 2026-04-26 15:14 | 57.62864 | 7.95020 | 21277 ft | 267 kts | 189° |
| 2026-04-26 15:15 | 57.60992 | 7.94999 | 21648 ft | 275 kts | 178° |
| 2026-04-26 15:15 | 57.59094 | 7.95517 | 22024 ft | 276 kts | 180° |
| 2026-04-26 15:15 | 57.57212 | 7.96019 | 22386 ft | 278 kts | 179° |
| 2026-04-26 15:15 | 57.55273 | 7.96581 | 22746 ft | 280 kts | 179° |
| 2026-04-26 15:16 | 57.53352 | 7.97164 | 23092 ft | 282 kts | 178° |
| 2026-04-26 15:16 | 57.51428 | 7.97764 | 23429 ft | 284 kts | 178° |
| 2026-04-26 15:16 | 57.49467 | 7.98385 | 23762 ft | 286 kts | 178° |
| 2026-04-26 15:16 | 57.47504 | 7.99010 | 24086 ft | 287 kts | 178° |
| 2026-04-26 15:17 | 57.45549 | 7.99636 | 24399 ft | 289 kts | 178° |
| 2026-04-26 15:17 | 57.44213 | 8.00064 | 24617 ft | 291 kts | 178° |
| 2026-04-26 15:17 | 57.41576 | 8.00910 | 25082 ft | 293 kts | 178° |
| 2026-04-26 15:17 | 57.39565 | 8.01556 | 25422 ft | 294 kts | 178° |
| 2026-04-26 15:18 | 57.37539 | 8.02205 | 25746 ft | 296 kts | 178° |
| 2026-04-26 15:18 | 57.35523 | 8.02850 | 26058 ft | 298 kts | 179° |
| 2026-04-26 15:18 | 57.33468 | 8.03507 | 26368 ft | 300 kts | 179° |
| 2026-04-26 15:18 | 57.31428 | 8.04159 | 26668 ft | 301 kts | 179° |
| 2026-04-26 15:19 | 57.29367 | 8.04853 | 26960 ft | 305 kts | 176° |
| 2026-04-26 15:19 | 57.27291 | 8.05425 | 27237 ft | 300 kts | 184° |
| 2026-04-26 15:19 | 57.25200 | 8.05703 | 27522 ft | 302 kts | 184° |
| 2026-04-26 15:19 | 57.23119 | 8.06015 | 27795 ft | 304 kts | 184° |
| 2026-04-26 15:20 | 57.21010 | 8.06354 | 28063 ft | 305 kts | 183° |
| 2026-04-26 15:20 | 57.18906 | 8.06704 | 28323 ft | 307 kts | 183° |
| 2026-04-26 15:20 | 57.16781 | 8.07063 | 28578 ft | 308 kts | 183° |
| 2026-04-26 15:20 | 57.14641 | 8.07429 | 28828 ft | 310 kts | 183° |
| 2026-04-26 15:21 | 57.12508 | 8.07796 | 29069 ft | 311 kts | 183° |
| 2026-04-26 15:21 | 57.10350 | 8.08168 | 29296 ft | 313 kts | 184° |
| 2026-04-26 15:21 | 57.08160 | 8.08546 | 29477 ft | 316 kts | 184° |
| 2026-04-26 15:21 | 57.05987 | 8.08919 | 29646 ft | 319 kts | 184° |
| 2026-04-26 15:22 | 57.03764 | 8.09301 | 29820 ft | 322 kts | 184° |
| 2026-04-26 15:22 | 57.01520 | 8.09686 | 29989 ft | 326 kts | 184° |
| 2026-04-26 15:22 | 56.99270 | 8.10071 | 30147 ft | 329 kts | 185° |
| 2026-04-26 15:22 | 56.96974 | 8.10463 | 30299 ft | 332 kts | 185° |
| 2026-04-26 15:23 | 56.94666 | 8.10856 | 30452 ft | 335 kts | 185° |
| 2026-04-26 15:23 | 56.92348 | 8.11251 | 30659 ft | 336 kts | 185° |
| 2026-04-26 15:23 | 56.90048 | 8.11643 | 30870 ft | 337 kts | 185° |
| 2026-04-26 15:23 | 56.87705 | 8.12042 | 31071 ft | 339 kts | 185° |
| 2026-04-26 15:24 | 56.85351 | 8.12441 | 31261 ft | 340 kts | 185° |
| 2026-04-26 15:24 | 56.82988 | 8.12842 | 31448 ft | 342 kts | 185° |
| 2026-04-26 15:24 | 56.80649 | 8.13238 | 31631 ft | 343 kts | 185° |
| 2026-04-26 15:24 | 56.78268 | 8.13641 | 31812 ft | 344 kts | 185° |
| 2026-04-26 15:25 | 56.75868 | 8.14047 | 31990 ft | 346 kts | 185° |
| 2026-04-26 15:25 | 56.74270 | 8.14317 | 32106 ft | 347 kts | 185° |
| 2026-04-26 15:25 | 56.71096 | 8.14853 | 32331 ft | 349 kts | 185° |
| 2026-04-26 15:25 | 56.68689 | 8.15258 | 32497 ft | 350 kts | 185° |
| 2026-04-26 15:26 | 56.66258 | 8.15667 | 32660 ft | 351 kts | 185° |
| 2026-04-26 15:26 | 56.63830 | 8.16075 | 32820 ft | 352 kts | 185° |
| 2026-04-26 15:26 | 56.61381 | 8.16486 | 32978 ft | 354 kts | 185° |
| 2026-04-26 15:26 | 56.58940 | 8.16895 | 33131 ft | 355 kts | 185° |
| 2026-04-26 15:27 | 56.56485 | 8.17305 | 33282 ft | 356 kts | 185° |
| 2026-04-26 15:27 | 56.54018 | 8.17718 | 33430 ft | 357 kts | 185° |
| 2026-04-26 15:27 | 56.51527 | 8.18133 | 33576 ft | 358 kts | 185° |
| 2026-04-26 15:27 | 56.49064 | 8.18544 | 33718 ft | 359 kts | 186° |
| 2026-04-26 15:28 | 56.46580 | 8.18902 | 33857 ft | 359 kts | 186° |
| 2026-04-26 15:28 | 56.44075 | 8.19237 | 33995 ft | 361 kts | 187° |
| 2026-04-26 15:28 | 56.39029 | 8.19896 | 34044 ft | 370 kts | 186° |
| 2026-04-26 15:29 | 56.33872 | 8.20568 | 34051 ft | 380 kts | 186° |
| 2026-04-26 15:30 | 56.23080 | 8.21972 | 34057 ft | 399 kts | 186° |
| 2026-04-26 15:30 | 56.17479 | 8.22698 | 34058 ft | 408 kts | 185° |
| 2026-04-26 15:31 | 56.08912 | 8.23804 | 34059 ft | 421 kts | 185° |
| 2026-04-26 15:32 | 56.02110 | 8.24687 | 34052 ft | 421 kts | 185° |
| 2026-04-26 15:32 | 55.94332 | 8.25688 | 34052 ft | 419 kts | 185° |
| 2026-04-26 15:33 | 55.88554 | 8.26427 | 34054 ft | 418 kts | 185° |
| 2026-04-26 15:33 | 55.82744 | 8.27168 | 34055 ft | 417 kts | 185° |
| 2026-04-26 15:34 | 55.76979 | 8.27899 | 34055 ft | 416 kts | 185° |
| 2026-04-26 15:34 | 55.71216 | 8.28627 | 34055 ft | 415 kts | 185° |
| 2026-04-26 15:35 | 55.65458 | 8.29353 | 34055 ft | 415 kts | 185° |
| 2026-04-26 15:35 | 55.59849 | 8.29031 | 34071 ft | 394 kts | 200° |
| 2026-04-26 15:36 | 55.54634 | 8.26552 | 34056 ft | 388 kts | 205° |
| 2026-04-26 15:36 | 55.49526 | 8.23689 | 34054 ft | 386 kts | 206° |
| 2026-04-26 15:37 | 55.44411 | 8.20743 | 34053 ft | 386 kts | 207° |
| 2026-04-26 15:37 | 55.39334 | 8.17808 | 34053 ft | 385 kts | 207° |
| 2026-04-26 15:38 | 55.34272 | 8.14887 | 34053 ft | 384 kts | 207° |
| 2026-04-26 15:38 | 55.29223 | 8.11980 | 34063 ft | 383 kts | 207° |
| 2026-04-26 15:39 | 55.24180 | 8.09084 | 34071 ft | 382 kts | 207° |
| 2026-04-26 15:39 | 55.20825 | 8.07162 | 34076 ft | 382 kts | 207° |
| 2026-04-26 15:40 | 55.14093 | 8.03315 | 34078 ft | 381 kts | 207° |
| 2026-04-26 15:40 | 55.09089 | 8.00464 | 34077 ft | 381 kts | 207° |
| 2026-04-26 15:41 | 55.04062 | 7.97609 | 34077 ft | 380 kts | 207° |
| 2026-04-26 15:41 | 54.98911 | 7.95265 | 34082 ft | 385 kts | 202° |
| 2026-04-26 15:42 | 54.93710 | 7.93284 | 34077 ft | 386 kts | 203° |
| 2026-04-26 15:42 | 54.88417 | 7.91457 | 34076 ft | 387 kts | 204° |
| 2026-04-26 15:43 | 54.83161 | 7.89686 | 34077 ft | 387 kts | 204° |
| 2026-04-26 15:44 | 54.75243 | 7.87050 | 34159 ft | 384 kts | 204° |
| 2026-04-26 15:44 | 54.67315 | 7.84424 | 34075 ft | 387 kts | 204° |
| 2026-04-26 15:45 | 54.59420 | 7.81817 | 34076 ft | 386 kts | 204° |
| 2026-04-26 15:46 | 54.51517 | 7.79217 | 34076 ft | 386 kts | 204° |
| 2026-04-26 15:46 | 54.47991 | 7.78043 | 34075 ft | 385 kts | 205° |
| 2026-04-26 15:47 | 54.38435 | 7.74393 | 34078 ft | 386 kts | 205° |
| 2026-04-26 15:48 | 54.33194 | 7.72145 | 34064 ft | 380 kts | 216° |
| 2026-04-26 15:48 | 54.28636 | 7.67793 | 34078 ft | 380 kts | 221° |
| 2026-04-26 15:49 | 54.23998 | 7.63292 | 34080 ft | 390 kts | 220° |
| 2026-04-26 15:49 | 54.19207 | 7.58681 | 33986 ft | 399 kts | 220° |
| 2026-04-26 15:50 | 54.14366 | 7.54048 | 34074 ft | 402 kts | 220° |
| 2026-04-26 15:50 | 54.09438 | 7.49340 | 34074 ft | 405 kts | 220° |
| 2026-04-26 15:50 | 54.06986 | 7.47007 | 34336 ft | 400 kts | 220° |
| 2026-04-26 15:51 | 54.04555 | 7.44696 | 34397 ft | 401 kts | 220° |
| 2026-04-26 15:51 | 54.02131 | 7.42382 | 34224 ft | 406 kts | 220° |
| 2026-04-26 15:51 | 53.99654 | 7.40031 | 34294 ft | 406 kts | 220° |
| 2026-04-26 15:52 | 53.94699 | 7.35337 | 34326 ft | 408 kts | 220° |
| 2026-04-26 15:52 | 53.89716 | 7.30629 | 34366 ft | 410 kts | 219° |
| 2026-04-26 15:53 | 53.84692 | 7.25893 | 34398 ft | 413 kts | 219° |
| 2026-04-26 15:53 | 53.79652 | 7.21157 | 34423 ft | 415 kts | 219° |
| 2026-04-26 15:53 | 53.77114 | 7.18772 | 34108 ft | 421 kts | 219° |
| 2026-04-26 15:54 | 53.74578 | 7.16402 | 34094 ft | 415 kts | 219° |
| 2026-04-26 15:54 | 53.72054 | 7.14048 | 33990 ft | 413 kts | 219° |
| 2026-04-26 15:54 | 53.69567 | 7.11732 | 34174 ft | 399 kts | 219° |
| 2026-04-26 15:54 | 53.67142 | 7.09473 | 34048 ft | 391 kts | 219° |
| 2026-04-26 15:55 | 53.64816 | 7.07312 | 34078 ft | 376 kts | 219° |
| 2026-04-26 15:55 | 53.62563 | 7.05220 | 34044 ft | 362 kts | 220° |
| 2026-04-26 15:55 | 53.60377 | 7.03190 | 33908 ft | 351 kts | 220° |
| 2026-04-26 15:55 | 53.58242 | 7.01200 | 33511 ft | 347 kts | 220° |
| 2026-04-26 15:56 | 53.56132 | 6.99233 | 33047 ft | 346 kts | 220° |
| 2026-04-26 15:56 | 53.54055 | 6.97306 | 32629 ft | 343 kts | 219° |
| 2026-04-26 15:56 | 53.51978 | 6.95385 | 32230 ft | 339 kts | 219° |
| 2026-04-26 15:56 | 53.49892 | 6.93457 | 31795 ft | 337 kts | 219° |
| 2026-04-26 15:57 | 53.47870 | 6.91589 | 31353 ft | 335 kts | 219° |
| 2026-04-26 15:57 | 53.45833 | 6.89711 | 30914 ft | 333 kts | 219° |
| 2026-04-26 15:57 | 53.43800 | 6.87836 | 30389 ft | 333 kts | 219° |
| 2026-04-26 15:57 | 53.42456 | 6.86601 | 30137 ft | 331 kts | 218° |
| 2026-04-26 15:58 | 53.39766 | 6.84131 | 29626 ft | 326 kts | 218° |
| 2026-04-26 15:58 | 53.37798 | 6.82327 | 29255 ft | 323 kts | 218° |
| 2026-04-26 15:58 | 53.35819 | 6.80510 | 28779 ft | 322 kts | 218° |
| 2026-04-26 15:58 | 53.33849 | 6.78704 | 28333 ft | 321 kts | 218° |
| 2026-04-26 15:59 | 53.31898 | 6.76920 | 27920 ft | 319 kts | 218° |
| 2026-04-26 15:59 | 53.29976 | 6.75169 | 27772 ft | 309 kts | 218° |
| 2026-04-26 15:59 | 53.28129 | 6.73487 | 27537 ft | 302 kts | 218° |
| 2026-04-26 15:59 | 53.26289 | 6.71805 | 27126 ft | 301 kts | 218° |
| 2026-04-26 16:00 | 53.24443 | 6.70119 | 26689 ft | 301 kts | 218° |
| 2026-04-26 16:00 | 53.22599 | 6.68439 | 26286 ft | 300 kts | 217° |
| 2026-04-26 16:00 | 53.20778 | 6.66782 | 25903 ft | 298 kts | 217° |
| 2026-04-26 16:00 | 53.18967 | 6.65137 | 25518 ft | 297 kts | 217° |
| 2026-04-26 16:01 | 53.17155 | 6.63492 | 25129 ft | 295 kts | 217° |
| 2026-04-26 16:01 | 53.15356 | 6.61861 | 24743 ft | 294 kts | 217° |
| 2026-04-26 16:01 | 53.13582 | 6.60253 | 24363 ft | 292 kts | 217° |
| 2026-04-26 16:01 | 53.11797 | 6.58638 | 23982 ft | 291 kts | 216° |
| 2026-04-26 16:02 | 53.10019 | 6.57031 | 23604 ft | 290 kts | 216° |
| 2026-04-26 16:02 | 53.08203 | 6.55384 | 22986 ft | 303 kts | 216° |
| 2026-04-26 16:02 | 53.06317 | 6.53669 | 22387 ft | 323 kts | 216° |
| 2026-04-26 16:02 | 53.04967 | 6.52452 | 22249 ft | 328 kts | 215° |
| 2026-04-26 16:03 | 53.02262 | 6.50021 | 21809 ft | 343 kts | 215° |
| 2026-04-26 16:03 | 53.00116 | 6.48089 | 21395 ft | 354 kts | 215° |
| 2026-04-26 16:03 | 52.97924 | 6.46127 | 21328 ft | 354 kts | 215° |
| 2026-04-26 16:03 | 52.95800 | 6.44234 | 21451 ft | 343 kts | 215° |
| 2026-04-26 16:04 | 52.93687 | 6.42341 | 21252 ft | 341 kts | 215° |
| 2026-04-26 16:04 | 52.91598 | 6.40465 | 20863 ft | 345 kts | 215° |
| 2026-04-26 16:04 | 52.89481 | 6.38568 | 20572 ft | 346 kts | 215° |
| 2026-04-26 16:04 | 52.87351 | 6.36667 | 20408 ft | 344 kts | 214° |
| 2026-04-26 16:05 | 52.85261 | 6.34804 | 20241 ft | 342 kts | 214° |
| 2026-04-26 16:05 | 52.83276 | 6.32651 | 19915 ft | 337 kts | 227° |
| 2026-04-26 16:05 | 52.81859 | 6.29612 | 19500 ft | 336 kts | 239° |
| 2026-04-26 16:05 | 52.80603 | 6.26403 | 19470 ft | 328 kts | 239° |
| 2026-04-26 16:06 | 52.79340 | 6.23283 | 19336 ft | 323 kts | 238° |
| 2026-04-26 16:06 | 52.78062 | 6.20183 | 18940 ft | 326 kts | 238° |
| 2026-04-26 16:06 | 52.76775 | 6.17091 | 18525 ft | 328 kts | 237° |
| 2026-04-26 16:06 | 52.75480 | 6.14005 | 18228 ft | 327 kts | 237° |
| 2026-04-26 16:07 | 52.74182 | 6.10922 | 17977 ft | 325 kts | 237° |
| 2026-04-26 16:07 | 52.72875 | 6.07826 | 17685 ft | 324 kts | 237° |
| 2026-04-26 16:07 | 52.71587 | 6.04781 | 17371 ft | 325 kts | 237° |
| 2026-04-26 16:07 | 52.70293 | 6.01726 | 17067 ft | 324 kts | 237° |
| 2026-04-26 16:08 | 52.69005 | 5.98691 | 17026 ft | 315 kts | 237° |
| 2026-04-26 16:08 | 52.68164 | 5.96711 | 16685 ft | 320 kts | 237° |
| 2026-04-26 16:08 | 52.66462 | 5.92705 | 16199 ft | 323 kts | 237° |
| 2026-04-26 16:08 | 52.65185 | 5.89709 | 16228 ft | 313 kts | 237° |
| 2026-04-26 16:09 | 52.63957 | 5.86831 | 16176 ft | 306 kts | 237° |
| 2026-04-26 16:09 | 52.62707 | 5.83899 | 15653 ft | 315 kts | 237° |
| 2026-04-26 16:09 | 52.61439 | 5.80925 | 15264 ft | 318 kts | 237° |
| 2026-04-26 16:09 | 52.60179 | 5.77980 | 15041 ft | 317 kts | 236° |
| 2026-04-26 16:10 | 52.58906 | 5.75010 | 14809 ft | 315 kts | 236° |
| 2026-04-26 16:10 | 52.57642 | 5.72061 | 14446 ft | 313 kts | 236° |
| 2026-04-26 16:10 | 52.56382 | 5.69126 | 13940 ft | 315 kts | 236° |
| 2026-04-26 16:10 | 52.55128 | 5.66205 | 13463 ft | 316 kts | 236° |
| 2026-04-26 16:11 | 52.53850 | 5.63235 | 13023 ft | 315 kts | 236° |
| 2026-04-26 16:11 | 52.52590 | 5.60309 | 12598 ft | 315 kts | 236° |
| 2026-04-26 16:11 | 52.51402 | 5.57296 | 12159 ft | 314 kts | 243° |
| 2026-04-26 16:11 | 52.50430 | 5.54134 | 12003 ft | 304 kts | 244° |
| 2026-04-26 16:12 | 52.49571 | 5.51229 | 11984 ft | 292 kts | 245° |
| 2026-04-26 16:12 | 52.48703 | 5.48259 | 11957 ft | 280 kts | 245° |
| 2026-04-26 16:12 | 52.47113 | 5.42712 | 11788 ft | 262 kts | 246° |
| 2026-04-26 16:13 | 52.46343 | 5.40003 | 11491 ft | 262 kts | 246° |
| 2026-04-26 16:13 | 52.45571 | 5.37285 | 11177 ft | 262 kts | 246° |
| 2026-04-26 16:13 | 52.44836 | 5.34699 | 10902 ft | 262 kts | 245° |
| 2026-04-26 16:13 | 52.44137 | 5.32239 | 10654 ft | 261 kts | 246° |
| 2026-04-26 16:14 | 52.43363 | 5.29522 | 10373 ft | 260 kts | 246° |
| 2026-04-26 16:14 | 52.42603 | 5.26857 | 9978 ft | 264 kts | 246° |
| 2026-04-26 16:14 | 52.41052 | 5.21429 | 9509 ft | 259 kts | 246° |
| 2026-04-26 16:15 | 52.40283 | 5.18740 | 9230 ft | 259 kts | 246° |
| 2026-04-26 16:15 | 52.39514 | 5.16050 | 8939 ft | 259 kts | 247° |
| 2026-04-26 16:15 | 52.38746 | 5.13372 | 8631 ft | 260 kts | 247° |
| 2026-04-26 16:16 | 52.37194 | 5.07966 | 8060 ft | 260 kts | 248° |
| 2026-04-26 16:16 | 52.36422 | 5.05285 | 7691 ft | 265 kts | 248° |
| 2026-04-26 16:16 | 52.35635 | 5.02545 | 7399 ft | 265 kts | 248° |
| 2026-04-26 16:16 | 52.34856 | 4.99839 | 7390 ft | 253 kts | 247° |
| 2026-04-26 16:17 | 52.34100 | 4.97235 | 7091 ft | 256 kts | 248° |
| 2026-04-26 16:17 | 52.33357 | 4.94644 | 7004 ft | 248 kts | 247° |
| 2026-04-26 16:17 | 52.32614 | 4.92088 | 6799 ft | 246 kts | 248° |
| 2026-04-26 16:17 | 52.31867 | 4.89508 | 6352 ft | 254 kts | 248° |
| 2026-04-26 16:18 | 52.31112 | 4.86901 | 6168 ft | 251 kts | 248° |